ADDS METAR Data INFO
IDs: Format: Raw Decoded Include TAF

Data at: 0250 UTC 21 Oct 2017

KCLL 210238Z AUTO 13010KT 10SM SCT016 23/21 A2996 RMK AO2 T02330211